Time;durP1;ratioP1;P1;durP2;ratioP2;P2;SDS_P1;SDS_P2;PMS_P1;PMS_P2;Temp;Humidity;BMP_temperature;BMP_pressure;BME280_temperature;BME280_humidity;BME280_pressure;Samples;Min_cycle;Max_cycle;Signal;HPM_P1;HPM_P2
2023/09/13 00:00:14;;;;;;;17.10;9.28;;;;;;;16.13;66.49;100492.20;1625105;88;21098;-66
2023/09/13 00:02:42;;;;;;;15.75;8.80;;;;;;;16.12;66.60;100484.13;1625075;87;21086;-67
2023/09/13 00:05:12;;;;;;;15.75;9.00;;;;;;;16.10;66.67;100481.60;1625173;88;21119;-66
2023/09/13 00:07:42;;;;;;;15.65;8.28;;;;;;;16.07;66.79;100482.06;1625236;88;21063;-66
2023/09/13 00:10:11;;;;;;;17.15;9.08;;;;;;;16.07;66.87;100479.84;1623102;88;21102;-66
2023/09/13 00:12:41;;;;;;;17.82;8.80;;;;;;;16.07;66.88;100479.84;1623180;88;21467;-67
2023/09/13 00:15:11;;;;;;;16.80;8.80;;;;;;;16.03;66.96;100486.37;1623098;88;21080;-66
2023/09/13 00:17:40;;;;;;;14.60;8.45;;;;;;;15.99;67.07;100482.38;1623185;88;21087;-65
2023/09/13 00:20:11;;;;;;;13.58;8.15;;;;;;;15.95;67.16;100481.16;1623268;88;21031;-65
2023/09/13 00:22:40;;;;;;;17.02;8.60;;;;;;;15.95;67.29;100478.39;1641427;87;21519;-65
2023/09/13 00:25:09;;;;;;;15.80;8.68;;;;;;;15.94;67.38;100473.09;1651614;86;21103;-66
2023/09/13 00:27:38;;;;;;;15.78;8.88;;;;;;;15.94;67.48;100482.23;1651557;87;21077;-67
2023/09/13 00:30:10;;;;;;;15.43;8.58;;;;;;;15.92;67.60;100472.48;1651512;87;21082;-66
2023/09/13 00:32:42;;;;;;;15.93;9.03;;;;;;;15.91;67.65;100470.80;1653617;87;21059;-64
2023/09/13 00:35:11;;;;;;;16.27;8.70;;;;;;;15.87;67.64;100474.55;1651543;87;21095;-65
2023/09/13 00:37:40;;;;;;;16.75;8.63;;;;;;;15.82;67.69;100477.17;1651527;87;21094;-66
2023/09/13 00:40:11;;;;;;;15.03;8.48;;;;;;;15.75;67.87;100481.92;1653827;87;21090;-66
2023/09/13 00:42:40;;;;;;;15.63;8.45;;;;;;;15.72;68.09;100481.84;1651877;87;21043;-66
2023/09/13 00:45:10;;;;;;;15.60;8.40;;;;;;;15.73;68.21;100474.41;1651512;87;21047;-65
2023/09/13 00:47:42;;;;;;;14.33;8.48;;;;;;;15.75;68.25;100472.25;1651508;87;21462;-65
2023/09/13 00:50:14;;;;;;;15.15;8.95;;;;;;;15.75;68.34;100481.39;1651537;87;21098;-66
2023/09/13 00:52:45;;;;;;;16.25;8.60;;;;;;;15.76;68.43;100482.23;1651616;87;21078;-68
2023/09/13 00:55:15;;;;;;;17.87;8.65;;;;;;;15.75;68.41;100470.33;1651705;86;21071;-66
2023/09/13 00:57:44;;;;;;;17.15;8.35;;;;;;;15.73;68.44;100467.50;1651568;87;21043;-66
2023/09/13 01:00:15;;;;;;;15.60;8.73;;;;;;;15.71;68.55;100471.02;1651551;87;21055;-65
2023/09/13 01:02:44;;;;;;;15.05;8.60;;;;;;;15.71;68.63;100469.64;1653244;87;21054;-66
2023/09/13 01:05:14;;;;;;;15.65;8.75;;;;;;;15.71;68.69;100473.25;1653832;86;21059;-66
2023/09/13 01:07:44;;;;;;;16.65;8.95;;;;;;;15.71;68.73;100473.79;1651603;87;21492;-67
2023/09/13 01:10:14;;;;;;;17.23;9.83;;;;;;;15.73;68.76;100471.64;1651655;87;21122;-66
2023/09/13 01:12:43;;;;;;;16.00;9.33;;;;;;;15.73;68.80;100470.26;1655669;86;21051;-68
2023/09/13 01:15:15;;;;;;;15.75;9.83;;;;;;;15.71;68.88;100466.88;1655706;86;21169;-65
2023/09/13 01:18:05;;;;;;;15.93;8.88;;;;;;;15.69;68.98;100468.49;1651725;87;21082;-66
2023/09/13 01:20:51;;;;;;;14.13;8.68;;;;;;;15.66;69.11;100463.97;1651939;87;21019;-67
2023/09/13 01:24:01;;;;;;;15.98;9.08;;;;;;;15.65;69.18;100460.89;1652405;87;21505;-65
2023/09/13 01:27:22;;;;;;;14.85;9.23;;;;;;;15.65;69.25;100460.89;1651761;86;21047;-65
2023/09/13 01:29:52;;;;;;;19.52;9.63;;;;;;;15.64;69.38;100455.06;1651768;87;21007;-66
2023/09/13 01:32:21;;;;;;;17.45;8.90;;;;;;;15.60;69.44;100453.80;1656829;86;21027;-66
2023/09/13 01:34:51;;;;;;;12.73;8.35;;;;;;;15.53;69.62;100455.22;1651888;86;21122;-66
2023/09/13 01:37:20;;;;;;;15.88;9.95;;;;;;;15.50;69.75;100454.30;1651818;87;21058;-65
2023/09/13 01:39:50;;;;;;;16.30;9.08;;;;;;;15.50;69.90;100452.38;1651996;87;21050;-66
2023/09/13 01:42:19;;;;;;;16.35;9.38;;;;;;;15.51;70.03;100449.92;1651930;87;21461;-65
2023/09/13 01:44:50;;;;;;;12.82;8.35;;;;;;;15.53;70.06;100452.45;1651746;87;21042;-65
2023/09/13 01:47:20;;;;;;;14.78;8.48;;;;;;;15.54;70.14;100443.95;1651737;87;21289;-65
2023/09/13 01:49:51;;;;;;;16.85;8.98;;;;;;;15.56;70.18;100453.38;1651904;87;21047;-65
2023/09/13 01:52:21;;;;;;;20.08;9.80;;;;;;;15.52;70.25;100450.23;1651752;87;21518;-67
2023/09/13 01:54:50;;;;;;;14.83;9.03;;;;;;;15.49;70.44;100452.61;1657187;86;21058;-65
2023/09/13 01:57:20;;;;;;;14.95;9.23;;;;;;;15.47;70.62;100449.23;1597445;90;21078;-65
2023/09/13 01:59:50;;;;;;;17.70;8.90;;;;;;;15.48;70.67;100449.00;1577287;89;21047;-66
2023/09/13 02:02:19;;;;;;;16.93;8.70;;;;;;;15.48;70.74;100450.39;1597686;90;21531;-67
2023/09/13 02:04:49;;;;;;;16.15;9.28;;;;;;;15.50;70.80;100448.23;1597535;90;21487;-65
2023/09/13 02:07:20;;;;;;;15.63;9.03;;;;;;;15.51;70.86;100447.70;1597652;90;21094;-66
2023/09/13 02:09:52;;;;;;;19.07;10.45;;;;;;;15.50;70.98;100451.53;1594061;89;21567;-67
2023/09/13 02:12:22;;;;;;;15.55;9.50;;;;;;;15.48;71.16;100449.54;1571921;90;21055;-65
2023/09/13 02:14:53;;;;;;;17.73;8.73;;;;;;;15.46;71.30;100456.67;1591360;90;21106;-66
2023/09/13 02:17:22;;;;;;;16.42;9.33;;;;;;;15.44;71.41;100456.06;1591574;90;21075;-66
2023/09/13 02:19:53;;;;;;;17.67;9.20;;;;;;;15.44;71.50;100451.07;1529795;93;21528;-65
2023/09/13 02:22:21;;;;;;;18.27;9.13;;;;;;;15.42;71.58;100449.92;1529972;92;21112;-67
2023/09/13 02:24:51;;;;;;;18.25;9.73;;;;;;;15.41;71.69;100455.67;1530175;93;21133;-66
2023/09/13 02:27:20;;;;;;;16.25;9.23;;;;;;;15.37;71.87;100456.66;1529954;93;21113;-65
2023/09/13 02:29:50;;;;;;;16.52;9.10;;;;;;;15.34;72.13;100459.88;1440075;99;21146;-65
2023/09/13 02:32:22;;;;;;;17.20;9.53;;;;;;;15.33;72.26;100458.19;1439941;98;21591;-65
2023/09/13 02:34:50;;;;;;;18.27;8.98;;;;;;;15.31;72.39;100458.11;1439947;99;21115;-65
2023/09/13 02:37:20;;;;;;;15.78;9.30;;;;;;;15.29;72.56;100453.34;1440108;99;21214;-65
2023/09/13 02:39:49;;;;;;;18.00;9.33;;;;;;;15.28;72.76;100453.89;1439945;98;21257;-66
2023/09/13 02:42:18;;;;;;;16.17;9.50;;;;;;;15.26;72.84;100449.66;1440017;100;21632;-65
2023/09/13 02:44:48;;;;;;;16.97;9.48;;;;;;;15.24;72.88;100452.66;1494224;94;21224;-66
2023/09/13 02:47:18;;;;;;;17.02;9.23;;;;;;;15.22;73.01;100449.27;1521380;89;21482;-66
2023/09/13 02:49:48;;;;;;;17.80;9.33;;;;;;;15.22;73.11;100452.03;1611508;89;21614;-66
2023/09/13 02:52:26;;;;;;;17.20;9.48;;;;;;;15.20;73.29;100452.80;1611381;89;21459;-66
2023/09/13 02:54:57;;;;;;;16.77;9.40;;;;;;;15.17;73.37;100456.86;1611250;89;21079;-66
2023/09/13 02:57:26;;;;;;;17.98;9.75;;;;;;;15.17;73.50;100454.09;1611490;88;21075;-65
2023/09/13 02:59:56;;;;;;;17.73;9.60;;;;;;;15.22;73.48;100453.41;1611321;88;21094;-66
2023/09/13 03:02:26;;;;;;;21.15;10.70;;;;;;;15.25;73.45;100454.34;1595184;89;21490;-65
2023/09/13 03:04:55;;;;;;;16.45;10.32;;;;;;;15.27;73.40;100460.48;1595831;90;21096;-65
2023/09/13 03:07:25;;;;;;;21.02;11.18;;;;;;;15.30;73.33;100455.04;1595652;90;21127;-67
2023/09/13 03:09:57;;;;;;;19.87;11.38;;;;;;;15.33;73.21;100460.95;1593461;88;21132;-66
2023/09/13 03:12:27;;;;;;;21.25;11.40;;;;;;;15.37;73.03;100459.42;1591063;90;21111;-66
2023/09/13 03:14:57;;;;;;;23.95;11.53;;;;;;;15.38;72.86;100462.49;1592774;89;21182;-66
2023/09/13 03:17:26;;;;;;;22.10;11.33;;;;;;;15.41;72.67;100461.19;1591081;89;21532;-66
2023/09/13 03:19:54;;;;;;;20.82;11.15;;;;;;;15.42;72.40;100454.59;1591290;90;21096;-65
2023/09/13 03:22:23;;;;;;;23.10;11.35;;;;;;;15.41;72.27;100456.52;1591388;90;21133;-66
2023/09/13 03:24:52;;;;;;;22.20;11.00;;;;;;;15.42;72.22;100453.22;1591020;90;21496;-66
2023/09/13 03:27:22;;;;;;;20.32;11.28;;;;;;;15.43;72.17;100454.37;1593917;90;21072;-67
2023/09/13 03:29:51;;;;;;;21.27;11.57;;;;;;;15.43;72.12;100457.67;1591266;89;21097;-65
2023/09/13 03:32:21;;;;;;;24.57;12.55;;;;;;;15.40;72.11;100456.20;1591280;89;21100;-66
2023/09/13 03:34:51;;;;;;;25.02;12.82;;;;;;;15.37;72.16;100456.66;1591228;89;21072;-66
2023/09/13 03:37:21;;;;;;;24.72;12.47;;;;;;;15.34;72.29;100465.40;1591037;89;21120;-64
2023/09/13 03:39:50;;;;;;;26.30;12.68;;;;;;;15.32;72.41;100465.32;1592906;90;21651;-65
2023/09/13 03:42:20;;;;;;;24.47;13.68;;;;;;;15.27;72.53;100471.52;1591104;89;21120;-66
2023/09/13 03:44:50;;;;;;;38.08;13.32;;;;;;;15.26;72.77;100471.21;1591267;90;21680;-66
2023/09/13 03:47:20;;;;;;;23.57;13.03;;;;;;;15.26;72.90;100472.59;1591223;90;21095;-66
2023/09/13 03:49:50;;;;;;;24.95;12.63;;;;;;;15.25;73.00;100475.05;1591345;90;21088;-65
2023/09/13 03:52:19;;;;;;;29.18;13.05;;;;;;;15.24;73.09;100476.11;1591037;89;21123;-66
2023/09/13 03:54:48;;;;;;;25.72;13.72;;;;;;;15.22;73.19;100479.10;1593023;90;21112;-66
2023/09/13 03:57:20;;;;;;;30.20;13.60;;;;;;;15.23;73.29;100478.56;1592796;89;21103;-66
2023/09/13 03:59:51;;;;;;;25.52;12.25;;;;;;;15.22;73.36;100483.24;1591395;90;21133;-67
2023/09/13 04:02:20;;;;;;;21.02;12.23;;;;;;;15.22;73.42;100475.50;1591168;89;21056;-67
2023/09/13 04:04:49;;;;;;;24.65;11.88;;;;;;;15.22;73.44;100476.88;1591287;90;21493;-66
2023/09/13 04:07:19;;;;;;;27.17;12.37;;;;;;;15.20;73.46;100476.27;1592838;89;21156;-66
2023/09/13 04:09:48;;;;;;;25.75;11.95;;;;;;;15.17;73.57;100483.08;1600906;88;21113;-65
2023/09/13 04:12:19;;;;;;;24.30;12.73;;;;;;;15.19;73.65;100477.33;1621535;88;21061;-65
2023/09/13 04:14:51;;;;;;;26.23;12.10;;;;;;;15.19;73.68;100477.33;1621490;88;21085;-66
2023/09/13 04:17:19;;;;;;;22.27;12.40;;;;;;;15.18;73.64;100480.63;1621496;88;21105;-67
2023/09/13 04:19:49;;;;;;;22.07;11.53;;;;;;;15.17;73.74;100474.80;1574519;91;21170;-67
2023/09/13 04:22:19;;;;;;;25.45;11.65;;;;;;;15.19;73.70;100477.33;1574599;91;21139;-66
2023/09/13 04:24:48;;;;;;;22.82;11.70;;;;;;;15.20;73.52;100476.27;1553586;91;21114;-67
2023/09/13 04:27:22;;;;;;;23.02;11.70;;;;;;;15.21;73.42;100480.17;1525552;93;21514;-66
2023/09/13 04:29:54;;;;;;;23.00;11.78;;;;;;;15.22;73.30;100478.25;1525829;94;21329;-68
2023/09/13 04:32:25;;;;;;;22.75;12.05;;;;;;;15.24;73.31;100484.39;1545070;92;21078;-67
2023/09/13 04:34:57;;;;;;;22.98;11.53;;;;;;;15.28;73.28;100484.25;1525651;94;21717;-64
2023/09/13 04:37:27;;;;;;;20.85;11.38;;;;;;;15.32;73.13;100490.16;1538939;91;21102;-67
2023/09/13 04:40:01;;;;;;;21.10;11.18;;;;;;;15.39;72.74;100484.05;1573144;91;21129;-66
2023/09/13 04:42:30;;;;;;;20.88;11.53;;;;;;;15.46;72.20;100489.81;1573212;91;21126;-65
2023/09/13 04:44:59;;;;;;;19.10;10.93;;;;;;;15.53;71.73;100491.97;1588058;88;21155;-65
2023/09/13 04:47:28;;;;;;;18.05;10.20;;;;;;;15.59;71.36;100490.78;1603585;88;21086;-65
2023/09/13 04:49:57;;;;;;;20.08;10.98;;;;;;;15.62;70.79;100488.44;1621642;88;21053;-67
2023/09/13 04:52:25;;;;;;;21.75;11.25;;;;;;;15.65;70.47;100487.14;1621393;88;21086;-65
2023/09/13 04:54:55;;;;;;;22.62;11.57;;;;;;;15.69;70.34;100491.13;1621444;88;21603;-67
2023/09/13 04:57:25;;;;;;;19.82;11.18;;;;;;;15.73;70.27;100487.67;1621630;88;21116;-65
2023/09/13 04:59:55;;;;;;;21.90;11.88;;;;;;;15.78;70.26;100495.28;1621493;88;21125;-66
2023/09/13 05:02:24;;;;;;;20.88;10.78;;;;;;;15.83;70.17;100489.91;1621692;88;21074;-67
2023/09/13 05:04:55;;;;;;;22.17;11.15;;;;;;;15.89;70.08;100486.76;1621617;88;21062;-67
2023/09/13 05:07:24;;;;;;;18.95;10.60;;;;;;;15.94;69.92;100487.76;1603449;88;21081;-66
2023/09/13 05:09:54;;;;;;;23.55;13.13;;;;;;;16.00;69.73;100488.75;1622562;88;21537;-68
2023/09/13 05:12:24;;;;;;;22.25;11.70;;;;;;;16.04;69.54;100476.16;1626976;88;21132;-67
2023/09/13 05:14:53;;;;;;;19.98;11.45;;;;;;;16.08;69.41;100482.38;1626872;87;21073;-68
2023/09/13 05:17:23;;;;;;;19.57;11.12;;;;;;;16.13;69.13;100482.52;1626727;87;21561;-66
2023/09/13 05:19:53;;;;;;;25.45;11.20;;;;;;;16.17;68.91;100472.69;1626968;87;21109;-66
2023/09/13 05:22:22;;;;;;;19.40;10.80;;;;;;;16.24;68.73;100481.43;1626802;88;21061;-66
2023/09/13 05:24:53;;;;;;;19.15;10.70;;;;;;;16.28;68.53;100481.30;1626872;88;21108;-65
2023/09/13 05:27:23;;;;;;;16.80;9.58;;;;;;;16.31;68.27;100480.30;1627024;88;21069;-67
2023/09/13 05:29:53;;;;;;;18.00;10.10;;;;;;;16.37;68.06;100482.66;1626953;88;21117;-66
2023/09/13 05:32:24;;;;;;;15.55;9.30;;;;;;;16.42;67.73;100484.19;1622460;87;21494;-66
2023/09/13 05:34:53;;;;;;;23.87;10.38;;;;;;;16.47;67.42;100480.19;1626616;88;21069;-66
2023/09/13 05:37:22;;;;;;;22.58;9.60;;;;;;;16.54;67.11;100485.62;1626956;88;21515;-66
2023/09/13 05:39:52;;;;;;;16.62;9.55;;;;;;;16.58;66.64;100478.00;1626775;88;21092;-66
2023/09/13 05:42:22;;;;;;;24.47;9.85;;;;;;;16.62;66.37;100481.98;1601699;88;21121;-67
2023/09/13 05:44:54;;;;;;;19.80;10.55;;;;;;;16.68;66.20;100477.46;1621388;87;21532;-66
2023/09/13 05:47:23;;;;;;;20.68;10.10;;;;;;;16.73;65.79;100482.59;1626663;87;21523;-66
2023/09/13 05:49:53;;;;;;;20.10;10.28;;;;;;;16.78;65.52;100480.50;1626945;88;21153;-66
2023/09/13 05:52:22;;;;;;;22.85;9.85;;;;;;;16.83;65.28;100483.39;1626836;88;21073;-67
2023/09/13 05:54:52;;;;;;;22.15;10.35;;;;;;;16.90;65.06;100481.91;1626795;88;21332;-66
2023/09/13 05:57:21;;;;;;;17.23;9.55;;;;;;;16.96;64.80;100490.67;1626825;88;21148;-68
2023/09/13 05:59:50;;;;;;;18.23;9.58;;;;;;;16.98;64.48;100492.13;1626900;88;21081;-67
2023/09/13 06:02:20;;;;;;;23.18;11.57;;;;;;;17.01;64.27;100493.58;1621358;88;21112;-67
2023/09/13 06:04:50;;;;;;;18.82;10.43;;;;;;;17.07;64.11;100498.16;1622359;87;21208;-66
2023/09/13 06:07:19;;;;;;;18.02;10.23;;;;;;;17.09;63.67;100489.08;1626684;88;21507;-67
2023/09/13 06:09:49;;;;;;;23.73;10.98;;;;;;;17.13;63.61;100488.06;1626727;88;21097;-65
2023/09/13 06:12:20;;;;;;;23.52;12.10;;;;;;;17.18;63.55;100489.57;1622272;88;21081;-66
2023/09/13 06:14:53;;;;;;;22.73;10.60;;;;;;;17.21;63.40;100489.09;1601837;88;21112;-67
2023/09/13 06:17:23;;;;;;;38.02;11.48;;;;;;;17.27;63.17;100497.83;1626902;87;21109;-69
2023/09/13 06:19:54;;;;;;;21.77;10.55;;;;;;;17.32;63.10;100496.56;1626864;88;21077;-67
2023/09/13 06:22:25;;;;;;;20.90;9.75;;;;;;;17.35;62.87;100497.47;1626850;88;21113;-66
2023/09/13 06:24:56;;;;;;;20.65;10.93;;;;;;;17.39;62.70;100498.68;1626624;88;21080;-67
2023/09/13 06:27:25;;;;;;;20.55;10.63;;;;;;;17.44;62.66;100502.41;1626922;88;21148;-66
2023/09/13 06:29:54;;;;;;;18.42;10.75;;;;;;;17.49;62.63;100495.31;1626729;87;21548;-67
2023/09/13 06:32:24;;;;;;;21.48;11.22;;;;;;;17.52;62.55;100495.67;1626722;88;21089;-66
2023/09/13 06:35:19;;;;;;;28.45;11.38;;;;;;;17.57;62.60;100497.75;1626097;88;21674;-67
2023/09/13 06:38:11;;;;;;;20.37;10.45;;;;;;;17.62;62.64;100495.09;1631328;87;21227;-66
2023/09/13 06:40:51;;;;;;;17.80;9.18;;;;;;;17.67;62.48;100491.93;1649253;87;21168;-67
2023/09/13 06:43:25;;;;;;;24.70;10.53;;;;;;;17.72;62.32;100493.97;1682684;85;21491;-67
2023/09/13 06:45:58;;;;;;;18.87;10.05;;;;;;;17.77;62.22;100494.09;1682027;84;21046;-67
2023/09/13 06:48:31;;;;;;;26.25;10.58;;;;;;;17.83;62.24;100490.89;1681899;85;21575;-68
2023/09/13 06:51:03;;;;;;;22.40;10.28;;;;;;;17.89;62.11;100495.46;1682658;85;21245;-68
2023/09/13 06:53:36;;;;;;;19.65;10.40;;;;;;;17.94;61.89;100493.64;1662751;85;21047;-67
2023/09/13 06:56:08;;;;;;;23.25;10.70;;;;;;;17.98;61.62;100494.84;1682738;85;21483;-66
2023/09/13 06:58:40;;;;;;;18.70;10.03;;;;;;;18.04;61.35;100499.41;1663425;85;21090;-67
2023/09/13 07:01:13;;;;;;;18.48;10.30;;;;;;;18.11;61.06;100508.98;1682535;85;21142;-67
2023/09/13 07:03:45;;;;;;;18.12;9.98;;;;;;;18.16;60.88;100504.08;1678510;85;21075;-67
2023/09/13 07:06:16;;;;;;;18.02;9.38;;;;;;;18.22;60.16;100496.20;1661344;85;21066;-68
2023/09/13 07:08:46;;;;;;;17.30;9.85;;;;;;;18.27;59.41;100493.53;1682472;85;21720;-67
2023/09/13 07:11:17;;;;;;;15.45;9.35;;;;;;;18.33;59.17;100502.25;1682531;85;21093;-67
2023/09/13 07:13:45;;;;;;;24.45;10.80;;;;;;;18.39;59.13;100497.11;1682778;85;21071;-66
2023/09/13 07:16:16;;;;;;;19.82;8.95;;;;;;;18.46;59.22;100494.19;1682703;85;21101;-67
2023/09/13 07:18:46;;;;;;;20.72;8.30;;;;;;;18.52;58.46;100491.81;1682560;85;21027;-66
2023/09/13 07:21:17;;;;;;;15.43;8.35;;;;;;;18.60;57.54;100500.58;1682730;85;21039;-67
2023/09/13 07:23:46;;;;;;;14.13;8.55;;;;;;;18.67;57.16;100508.78;1682486;85;21483;-67
2023/09/13 07:26:18;;;;;;;16.00;8.63;;;;;;;18.74;56.73;100506.70;1682596;85;21497;-67
2023/09/13 07:28:47;;;;;;;14.15;8.18;;;;;;;18.82;56.58;100509.62;1682550;85;21067;-67
2023/09/13 07:31:17;;;;;;;16.73;8.38;;;;;;;18.88;56.34;100503.09;1682619;85;21479;-68
2023/09/13 07:33:46;;;;;;;24.43;8.30;;;;;;;18.95;56.16;100506.56;1682682;85;21011;-66
2023/09/13 07:36:15;;;;;;;13.95;7.37;;;;;;;19.02;55.54;100507.24;1682497;85;21098;-66
2023/09/13 07:38:45;;;;;;;11.50;6.95;;;;;;;19.09;55.43;100505.69;1682619;85;21130;-69
2023/09/13 07:41:15;;;;;;;14.87;7.33;;;;;;;19.16;55.07;100499.42;1682466;85;21467;-68
2023/09/13 07:43:46;;;;;;;16.25;6.87;;;;;;;19.24;54.09;100504.02;1682484;85;21066;-68
2023/09/13 07:46:18;;;;;;;14.70;7.53;;;;;;;19.29;53.64;100506.88;1682544;85;21106;-68
2023/09/13 07:48:47;;;;;;;14.47;6.83;;;;;;;19.38;53.23;100494.79;1682443;85;21035;-67
2023/09/13 07:51:22;;;;;;;20.92;7.03;;;;;;;19.58;52.63;100502.66;1677987;84;21508;-69
2023/09/13 07:54:04;;;;;;;14.65;6.60;;;;;;;19.91;51.71;100503.99;1541293;91;21209;-70
2023/09/13 07:56:33;;;;;;;11.45;6.53;;;;;;;20.37;51.14;100501.84;1547368;91;21139;-68
2023/09/13 07:59:07;;;;;;;11.28;6.60;;;;;;;20.91;50.16;100506.11;1545106;93;21126;-69
2023/09/13 08:01:38;;;;;;;10.63;6.12;;;;;;;21.46;48.84;100507.77;1536513;93;21117;-68
2023/09/13 08:04:09;;;;;;;14.07;7.78;;;;;;;22.01;47.96;100505.05;1568894;91;21337;-73
2023/09/13 08:06:41;;;;;;;12.30;6.50;;;;;;;22.52;46.90;100506.73;1570167;91;21134;-69
2023/09/13 08:09:15;;;;;;;12.63;6.08;;;;;;;22.98;44.78;100504.39;1572627;90;21632;-70
2023/09/13 08:11:50;;;;;;;14.70;6.75;;;;;;;23.39;43.45;100503.02;1573076;90;21082;-69
2023/09/13 08:14:22;;;;;;;17.17;6.85;;;;;;;23.78;42.42;100503.88;1571733;91;21106;-71
2023/09/13 08:16:51;;;;;;;14.20;6.30;;;;;;;24.18;41.77;100498.75;1573100;91;21225;-70
2023/09/13 08:19:20;;;;;;;9.88;6.05;;;;;;;24.52;40.22;100496.11;1658179;86;21037;-71
2023/09/13 08:21:49;;;;;;;11.90;5.92;;;;;;;24.83;38.98;100492.59;1632998;88;21110;-70
2023/09/13 08:24:20;;;;;;;10.65;5.67;;;;;;;25.09;38.18;100492.72;1632823;88;21300;-71
2023/09/13 08:26:49;;;;;;;13.58;5.70;;;;;;;25.39;35.95;100490.27;1674145;86;21110;-69
2023/09/13 08:29:19;;;;;;;41.28;8.15;;;;;;;25.62;35.67;100497.06;1671861;85;21134;-70
2023/09/13 08:31:47;;;;;;;18.45;6.50;;;;;;;25.82;35.58;100497.45;1639512;87;21049;-71
2023/09/13 08:34:16;;;;;;;14.93;6.25;;;;;;;26.02;35.22;100497.83;1639475;87;21129;-69
2023/09/13 08:36:46;;;;;;;7.95;5.37;;;;;;;26.18;34.34;100487.52;1638385;87;21571;-71
2023/09/13 08:39:14;;;;;;;11.70;6.03;;;;;;;26.24;34.42;100486.89;1637386;88;21140;-70
2023/09/13 08:41:49;;;;;;;14.85;6.35;;;;;;;26.24;34.42;100486.89;1637269;88;22068;-70
2023/09/13 08:44:15;;;;;;;15.08;8.50;;;;;;;26.39;34.17;100483.91;1637312;86;21129;-69
2023/09/13 08:46:45;;;;;;;14.15;6.05;;;;;;;26.47;34.03;100486.05;1564572;92;21536;-71
2023/09/13 08:49:17;;;;;;;11.10;6.15;;;;;;;26.47;34.03;100486.05;1594550;90;21136;-70
2023/09/13 08:51:47;;;;;;;15.70;6.35;;;;;;;26.51;33.60;100476.45;1564593;92;21188;-73
2023/09/13 08:54:16;;;;;;;11.80;5.35;;;;;;;26.54;33.28;100480.90;1594645;90;21156;-69
2023/09/13 08:56:46;;;;;;;12.70;5.70;;;;;;;26.38;33.42;100471.00;1594565;90;21615;-70
2023/09/13 08:59:18;;;;;;;9.00;5.37;;;;;;;26.38;33.42;100471.00;1574374;90;21141;-70
2023/09/13 09:01:50;;;;;;;14.30;5.62;;;;;;;26.19;33.25;100467.29;1599893;89;21092;-71
2023/09/13 09:04:20;;;;;;;15.18;5.62;;;;;;;25.94;33.89;100468.97;1602181;85;21573;-71
2023/09/13 09:06:49;;;;;;;7.67;5.05;;;;;;;25.94;33.89;100468.97;1678897;85;21019;-70
2023/09/13 09:09:23;;;;;;;12.70;5.50;;;;;;;25.84;33.40;100468.52;1678974;85;21063;-72
2023/09/13 09:11:56;;;;;;;9.48;5.28;;;;;;;25.69;33.81;100468.11;1678840;85;21043;-71
2023/09/13 09:14:28;;;;;;;14.43;5.90;;;;;;;25.67;34.00;100471.78;1678862;85;21051;-75
2023/09/13 09:16:59;;;;;;;12.98;5.35;;;;;;;25.65;34.15;100464.77;1678782;85;21031;-71
2023/09/13 09:19:29;;;;;;;14.55;5.78;;;;;;;25.60;33.98;100472.09;1659329;85;21560;-70
2023/09/13 09:21:58;;;;;;;10.25;5.37;;;;;;;25.52;33.96;100459.28;1678898;85;21023;-72
2023/09/13 09:24:29;;;;;;;10.30;5.50;;;;;;;25.42;34.44;100466.39;1678912;85;21075;-72
2023/09/13 09:26:59;;;;;;;13.25;5.60;;;;;;;25.37;34.68;100465.88;1678689;85;21094;-70
2023/09/13 09:29:39;;;;;;;20.55;7.15;;;;;;;25.33;35.14;100461.95;1696087;84;21023;-69
2023/09/13 09:32:09;;;;;;;16.17;5.95;;;;;;;25.32;35.53;100454.67;1682184;84;21469;-70
2023/09/13 09:34:40;;;;;;;8.43;5.70;;;;;;;25.34;35.69;100456.61;1668478;85;21482;-68
2023/09/13 09:37:09;;;;;;;10.65;6.60;;;;;;;25.33;35.84;100452.13;1663685;85;21106;-69
2023/09/13 09:39:42;;;;;;;12.68;5.50;;;;;;;25.31;36.12;100447.38;1632279;87;21057;-71
2023/09/13 09:42:15;;;;;;;22.67;6.78;;;;;;;25.29;36.35;100453.29;1649049;87;21496;-73
2023/09/13 09:44:45;;;;;;;16.52;6.75;;;;;;;25.27;36.83;100450.51;1649484;86;21057;-71
2023/09/13 09:47:15;;;;;;;12.13;6.08;;;;;;;25.23;36.76;100443.25;1622679;87;21116;-70
2023/09/13 09:49:49;;;;;;;12.18;6.30;;;;;;;25.17;36.83;100436.01;1631872;87;21497;-70
2023/09/13 09:52:17;;;;;;;13.78;6.00;;;;;;;25.16;36.64;100437.70;1610441;88;21137;-71
2023/09/13 09:54:49;;;;;;;10.72;6.03;;;;;;;25.17;36.60;100437.41;1629582;88;21685;-71
2023/09/13 09:57:22;;;;;;;9.68;5.50;;;;;;;25.16;35.90;100434.91;1629746;88;21536;-71
2023/09/13 09:59:51;;;;;;;9.58;5.30;;;;;;;25.14;35.63;100437.16;1629797;88;21104;-70
2023/09/13 10:02:28;;;;;;;9.55;4.78;;;;;;;25.15;35.18;100436.03;1628748;88;21077;-71
2023/09/13 10:04:59;;;;;;;10.30;5.03;;;;;;;25.14;34.74;100432.39;1632388;86;21574;-71
2023/09/13 10:07:28;;;;;;;9.80;5.12;;;;;;;25.14;34.37;100434.36;1608873;87;21065;-71
2023/09/13 10:09:58;;;;;;;11.97;4.62;;;;;;;25.15;34.63;100434.63;1649315;87;21481;-73
2023/09/13 10:12:27;;;;;;;11.40;4.87;;;;;;;25.16;34.82;100428.73;1649149;86;21025;-72
2023/09/13 10:14:56;;;;;;;10.23;4.87;;;;;;;25.19;35.04;100424.50;1621872;87;21081;-70
2023/09/13 10:17:26;;;;;;;9.85;4.92;;;;;;;25.22;34.66;100426.14;1651267;85;21029;-72
2023/09/13 10:19:55;;;;;;;10.08;4.50;;;;;;;25.25;34.49;100428.92;1649301;87;21061;-72
2023/09/13 10:22:30;;;;;;;8.88;5.12;;;;;;;25.27;33.81;100429.47;1649318;87;21119;-74
2023/09/13 10:24:59;;;;;;;13.40;4.67;;;;;;;25.24;33.57;100421.08;1649369;85;21069;-71
2023/09/13 10:27:28;;;;;;;9.58;4.62;;;;;;;25.23;33.95;100422.77;1649353;86;21069;-71
2023/09/13 10:29:59;;;;;;;13.80;5.47;;;;;;;25.23;34.21;100424.18;1649138;85;21108;-73
2023/09/13 10:32:35;;;;;;;10.88;4.80;;;;;;;25.25;33.92;100415.73;1649263;86;21073;-71
2023/09/13 10:35:06;;;;;;;;;;;;;;;25.29;33.64;100419.63;1650895;87;21589;-71
2023/09/13 10:37:51;;;;;;;8.10;3.90;;;;;;;25.32;33.17;100417.36;1624817;87;20461;-70
2023/09/13 10:40:24;;;;;;;6.90;3.85;;;;;;;25.35;32.95;100404.15;1649526;87;21034;-71
2023/09/13 10:42:54;;;;;;;7.35;3.90;;;;;;;25.39;32.25;100414.52;1619777;88;21091;-72
2023/09/13 10:45:24;;;;;;;7.70;3.80;;;;;;;25.43;31.93;100417.00;1624228;88;21049;-71
2023/09/13 10:47:53;;;;;;;8.13;3.70;;;;;;;25.45;31.63;100419.51;1629379;87;21097;-71
2023/09/13 10:50:23;;;;;;;10.75;4.00;;;;;;;25.42;31.50;100417.30;1647597;87;21084;-71
2023/09/13 10:52:53;;;;;;;11.45;3.40;;;;;;;25.39;31.51;100414.52;1608335;87;21080;-71
2023/09/13 10:55:23;;;;;;;10.13;3.70;;;;;;;25.35;31.32;100404.98;1647518;87;21081;-72
2023/09/13 10:57:53;;;;;;;11.93;3.92;;;;;;;25.34;31.20;100401.91;1647585;86;21505;-71
2023/09/13 11:00:22;;;;;;;7.70;3.52;;;;;;;25.35;31.06;100413.41;1647495;86;21120;-70
2023/09/13 11:02:51;;;;;;;6.97;3.60;;;;;;;25.37;30.98;100399.95;1647374;87;21465;-68
2023/09/13 11:05:21;;;;;;;10.00;3.52;;;;;;;25.37;31.35;100400.52;1647685;87;21041;-70
2023/09/13 11:07:51;;;;;;;7.67;3.08;;;;;;;25.39;31.57;100406.10;1647495;86;21093;-72
2023/09/13 11:10:22;;;;;;;8.68;3.25;;;;;;;25.41;30.58;100403.00;1647665;87;21081;-70
2023/09/13 11:12:52;;;;;;;7.55;3.30;;;;;;;25.42;30.12;100405.51;1629228;87;21069;-71
2023/09/13 11:15:25;;;;;;;7.65;3.40;;;;;;;25.44;30.14;100396.23;1629156;87;21120;-71
2023/09/13 11:17:56;;;;;;;10.98;3.95;;;;;;;25.45;30.15;100396.50;1647413;87;21025;-69
2023/09/13 11:20:36;;;;;;;5.45;3.15;;;;;;;25.48;30.26;100397.31;1641803;87;21599;-68
2023/09/13 11:23:12;;;;;;;7.28;3.37;;;;;;;25.52;29.85;100390.53;1585564;88;21098;-69
2023/09/13 11:25:49;;;;;;;8.75;3.47;;;;;;;25.56;29.62;100386.84;1647466;87;21538;-70
2023/09/13 11:28:39;;;;;;;7.12;3.62;;;;;;;25.58;29.27;100385.97;1647673;87;21108;-69
2023/09/13 11:31:10;;;;;;;11.85;3.83;;;;;;;25.59;29.17;100382.03;1647729;86;21082;-70
2023/09/13 11:33:55;;;;;;;5.65;3.05;;;;;;;25.62;29.44;100382.00;1651016;87;21128;-70